createdAt,value
2023-02-03T00:02:51.700Z,0.70
2023-02-03T00:05:54.930Z,1.08
2023-02-03T00:08:59.506Z,0.90
2023-02-03T00:12:02.163Z,1.10
2023-02-03T00:15:05.216Z,0.80
2023-02-03T00:18:07.759Z,1.00
2023-02-03T00:21:10.325Z,1.08
2023-02-03T00:24:13.044Z,1.10
2023-02-03T00:27:15.685Z,1.00
2023-02-03T00:30:18.447Z,0.82
2023-02-03T00:33:21.153Z,1.10
2023-02-03T00:36:24.760Z,1.30
2023-02-03T00:39:30.183Z,1.15
2023-02-03T00:42:35.066Z,0.73
2023-02-03T00:45:37.637Z,1.12
2023-02-03T00:48:40.372Z,1.20
2023-02-03T00:51:42.946Z,1.60
2023-02-03T00:54:45.575Z,1.50
2023-02-03T00:57:48.206Z,1.30
2023-02-03T01:00:51.029Z,1.37
2023-02-03T01:03:56.154Z,1.75
2023-02-03T01:07:00.011Z,1.42
2023-02-03T01:10:03.446Z,1.50
2023-02-03T01:13:06.094Z,1.40
2023-02-03T01:16:13.586Z,1.37
2023-02-03T01:19:17.011Z,1.67
2023-02-03T01:22:19.967Z,1.50
2023-02-03T01:25:22.549Z,1.40
2023-02-03T01:28:25.267Z,1.83
2023-02-03T01:31:40.940Z,1.62
2023-02-03T01:34:43.702Z,1.67
2023-02-03T01:37:46.714Z,1.80
2023-02-03T01:40:49.294Z,1.73
2023-02-03T01:43:54.640Z,2.00
2023-02-03T01:46:57.290Z,1.70
2023-02-03T01:50:09.019Z,2.03
2023-02-03T01:53:14.268Z,2.37
2023-02-03T01:56:17.443Z,2.35
2023-02-03T01:59:20.735Z,2.00
2023-02-03T02:02:23.419Z,2.08
2023-02-03T02:05:28.813Z,2.03
2023-02-03T02:08:31.578Z,2.03
2023-02-03T02:11:34.903Z,1.58
2023-02-03T02:14:38.247Z,1.70
2023-02-03T02:17:52.996Z,1.70
2023-02-03T02:21:17.010Z,1.92
2023-02-03T02:24:37.761Z,1.55
2023-02-03T02:28:24.495Z,1.60
2023-02-03T02:31:42.449Z,1.30
2023-02-03T02:35:14.705Z,1.60
2023-02-03T02:38:49.490Z,1.50
2023-02-03T02:42:02.725Z,1.73
2023-02-03T02:45:32.376Z,1.70
2023-02-03T02:48:36.745Z,1.20
2023-02-03T02:51:41.059Z,1.73
2023-02-03T02:54:47.325Z,1.58
2023-02-03T02:57:50.732Z,2.37
2023-02-03T03:00:53.369Z,2.00
2023-02-03T03:03:56.435Z,2.40
2023-02-03T03:07:08.456Z,1.35
2023-02-03T03:10:13.627Z,2.10
2023-02-03T03:13:22.655Z,1.75
2023-02-03T03:16:27.401Z,1.98
2023-02-03T03:19:34.289Z,1.50
2023-02-03T03:22:42.550Z,1.70
2023-02-03T03:25:49.501Z,1.50
2023-02-03T03:29:01.438Z,1.23
2023-02-03T03:32:04.596Z,1.30
2023-02-03T03:35:08.120Z,1.43
2023-02-03T03:38:17.096Z,1.60
2023-02-03T03:41:27.490Z,1.50
2023-02-03T03:44:43.677Z,1.48
2023-02-03T03:47:59.961Z,1.20
2023-02-03T03:51:12.067Z,1.27
2023-02-03T03:54:20.989Z,1.60
2023-02-03T03:57:27.061Z,1.10
2023-02-03T04:00:32.016Z,1.30
2023-02-03T04:03:49.195Z,1.50
2023-02-03T04:06:54.949Z,1.37
2023-02-03T04:09:57.750Z,1.48
2023-02-03T04:13:00.430Z,1.60
2023-02-03T04:16:03.062Z,1.52
2023-02-03T04:19:08.320Z,1.70
2023-02-03T04:22:11.169Z,1.37
2023-02-03T04:25:13.813Z,1.87
2023-02-03T04:28:16.633Z,1.73
2023-02-03T04:31:19.427Z,1.55
2023-02-03T04:34:22.129Z,2.30
2023-02-03T04:37:26.993Z,2.00
2023-02-03T04:40:29.904Z,1.70
2023-02-03T04:43:32.684Z,1.83
2023-02-03T04:46:35.632Z,1.85
2023-02-03T04:49:38.254Z,2.00
2023-02-03T04:52:40.818Z,2.13
2023-02-03T04:55:47.867Z,2.00
2023-02-03T04:58:50.590Z,2.20
2023-02-03T05:01:53.302Z,1.55
2023-02-03T05:04:55.908Z,1.98
2023-02-03T05:07:58.485Z,1.63
2023-02-03T05:11:02.414Z,1.77
2023-02-03T05:14:05.267Z,1.73
2023-02-03T05:17:07.889Z,2.10
2023-02-03T05:20:11.117Z,2.00
2023-02-03T05:23:13.853Z,2.10
2023-02-03T05:26:16.775Z,2.08
2023-02-03T05:29:20.193Z,2.00
2023-02-03T05:32:22.880Z,1.40
2023-02-03T05:35:25.460Z,2.08
2023-02-03T05:38:28.310Z,2.03
2023-02-03T05:41:49.475Z,2.15
2023-02-03T05:44:52.113Z,2.00
2023-02-03T05:47:54.812Z,2.03
2023-02-03T05:50:57.744Z,1.67
2023-02-03T05:54:00.371Z,1.80
2023-02-03T05:57:02.987Z,2.12
2023-02-03T06:00:07.496Z,1.80
2023-02-03T06:03:10.211Z,1.65
2023-02-03T06:06:12.967Z,1.83
2023-02-03T06:09:15.794Z,1.60
2023-02-03T06:12:18.683Z,3.62
2023-02-03T06:15:21.386Z,2.62
2023-02-03T06:18:24.285Z,3.10
2023-02-03T06:21:27.656Z,3.30
2023-02-03T06:24:30.428Z,2.67
2023-02-03T06:27:33.105Z,4.80
2023-02-03T06:30:36.078Z,5.75
2023-02-03T06:33:38.952Z,5.93
2023-02-03T06:36:42.000Z,5.35
2023-02-03T06:39:44.782Z,5.53
2023-02-03T06:42:48.441Z,4.95
2023-02-03T06:45:51.362Z,4.40
2023-02-03T06:48:54.181Z,3.65
2023-02-03T06:51:57.013Z,3.90
2023-02-03T06:54:59.753Z,3.77
2023-02-03T06:58:02.592Z,3.35
2023-02-03T07:01:05.369Z,3.62
2023-02-03T07:04:08.472Z,3.28
2023-02-03T07:07:12.620Z,4.12
2023-02-03T07:10:15.530Z,3.40
2023-02-03T07:13:18.407Z,3.25
2023-02-03T07:16:21.413Z,3.62
2023-02-03T07:19:24.573Z,4.00
2023-02-03T07:22:27.326Z,4.30
2023-02-03T07:25:31.215Z,3.97
2023-02-03T07:28:36.689Z,4.25
2023-02-03T07:31:39.961Z,4.22
2023-02-03T07:34:42.755Z,4.62
2023-02-03T07:37:45.642Z,4.72
2023-02-03T07:40:48.417Z,5.03
2023-02-03T07:43:51.124Z,5.12
2023-02-03T07:46:53.867Z,4.43
2023-02-03T07:49:56.691Z,4.28
2023-02-03T07:53:00.290Z,3.95
2023-02-03T07:56:04.731Z,3.27
2023-02-03T07:59:07.711Z,3.35
2023-02-03T08:02:11.587Z,3.22
2023-02-03T08:05:14.949Z,3.70
2023-02-03T08:08:17.773Z,3.55
2023-02-03T08:11:20.675Z,2.77
2023-02-03T08:14:24.142Z,2.72
2023-02-03T08:17:27.277Z,3.40
2023-02-03T08:20:30.435Z,2.65
2023-02-03T08:23:33.510Z,2.33
2023-02-03T08:26:37.246Z,2.10
2023-02-03T08:29:40.283Z,2.10
2023-02-03T08:32:43.152Z,2.00
2023-02-03T08:35:47.596Z,1.80
2023-02-03T08:38:50.551Z,2.10
2023-02-03T08:41:53.579Z,1.90
2023-02-03T08:44:56.582Z,1.83
2023-02-03T08:48:00.040Z,1.80
2023-02-03T08:51:02.853Z,1.77
2023-02-03T08:54:06.401Z,1.67
2023-02-03T08:57:09.429Z,1.90
2023-02-03T09:00:13.043Z,1.85
2023-02-03T09:03:15.938Z,1.37
2023-02-03T09:06:20.728Z,1.60
2023-02-03T09:09:26.833Z,1.90
2023-02-03T09:12:29.707Z,1.63
2023-02-03T09:15:35.670Z,1.50
2023-02-03T09:18:39.368Z,1.60
2023-02-03T09:21:46.811Z,1.30
2023-02-03T09:24:51.713Z,1.35
2023-02-03T09:27:54.718Z,1.50
2023-02-03T09:31:18.300Z,1.55
2023-02-03T09:34:21.852Z,1.35
2023-02-03T09:37:24.793Z,1.65
2023-02-03T09:40:31.667Z,1.27
2023-02-03T09:43:42.303Z,1.47
2023-02-03T09:46:49.485Z,1.35
2023-02-03T09:50:03.976Z,1.70
2023-02-03T09:53:16.479Z,1.50
2023-02-03T09:56:34.380Z,1.10
2023-02-03T10:15:36.350Z,2.17
2023-02-03T10:18:47.331Z,1.80
2023-02-03T10:21:55.553Z,1.92
2023-02-03T10:25:01.865Z,1.98
2023-02-03T10:28:13.679Z,2.45
2023-02-03T10:31:21.742Z,2.30
2023-02-03T10:34:26.462Z,2.27
2023-02-03T10:37:37.840Z,2.45
2023-02-03T10:40:40.917Z,1.90
2023-02-03T10:43:53.290Z,2.20
2023-02-03T10:46:58.856Z,2.42
2023-02-03T10:50:08.314Z,2.00
2023-02-03T10:53:33.469Z,2.53
2023-02-03T10:56:38.291Z,2.35
2023-02-03T10:59:46.984Z,2.28
2023-02-03T11:03:27.142Z,1.92
2023-02-03T11:06:31.295Z,2.10
2023-02-03T11:09:43.258Z,2.45
2023-02-03T11:12:46.440Z,2.22
2023-02-03T11:16:04.572Z,2.53
2023-02-03T11:19:15.377Z,2.53
2023-02-03T11:22:34.340Z,2.70
2023-02-03T11:25:44.710Z,2.35
2023-02-03T11:28:49.669Z,2.22
2023-02-03T11:31:53.852Z,2.85
2023-02-03T11:34:59.381Z,1.90
2023-02-03T11:38:37.037Z,2.67
2023-02-03T11:41:40.700Z,2.62
2023-02-03T11:44:45.375Z,2.20
2023-02-03T11:47:51.531Z,2.47
2023-02-03T11:51:17.812Z,2.50
2023-02-03T11:54:41.808Z,2.90
2023-02-03T11:58:11.435Z,2.60
2023-02-03T12:01:46.321Z,2.70
2023-02-03T12:05:16.334Z,2.80
2023-02-03T12:08:34.233Z,3.60
2023-02-03T12:12:04.962Z,3.43
2023-02-03T12:15:47.389Z,2.75
2023-02-03T12:18:57.151Z,3.97
2023-02-03T12:22:24.469Z,3.67
2023-02-03T12:25:51.995Z,3.67
2023-02-03T12:29:18.608Z,3.97
2023-02-03T12:32:32.519Z,3.37
2023-02-03T12:35:40.364Z,3.70
2023-02-03T12:38:55.131Z,3.42
2023-02-03T12:42:14.745Z,3.55
2023-02-03T12:45:26.711Z,3.93
2023-02-03T12:48:48.209Z,3.90
2023-02-03T12:52:23.485Z,3.92
2023-02-03T12:55:36.283Z,3.97
2023-02-03T12:58:51.380Z,4.25
2023-02-03T13:01:59.691Z,4.03
2023-02-03T13:05:15.366Z,4.55
2023-02-03T13:08:32.602Z,4.87
2023-02-03T13:11:57.294Z,4.53
2023-02-03T13:15:06.581Z,5.35
2023-02-03T13:18:29.820Z,5.00
2023-02-03T13:21:32.810Z,4.97
2023-02-03T13:24:35.951Z,5.93
2023-02-03T13:27:55.909Z,5.45
2023-02-03T13:31:24.737Z,5.00
2023-02-03T13:34:39.389Z,5.10
2023-02-03T13:37:53.803Z,4.93
2023-02-03T13:41:08.434Z,5.30
2023-02-03T13:44:18.552Z,5.03
2023-02-03T13:47:30.574Z,5.05
2023-02-03T13:50:43.087Z,5.17
2023-02-03T13:53:52.727Z,5.60
2023-02-03T13:57:00.081Z,5.28
2023-02-03T14:00:06.788Z,5.12
2023-02-03T14:03:20.452Z,5.65
2023-02-03T14:06:55.662Z,5.17
2023-02-03T14:10:14.397Z,5.50
2023-02-03T14:13:21.687Z,5.00
2023-02-03T14:16:25.830Z,4.53
2023-02-03T14:19:29.355Z,4.95
2023-02-03T14:22:34.239Z,4.63
2023-02-03T14:25:44.388Z,5.15
2023-02-03T14:28:48.622Z,5.22
2023-02-03T14:32:00.370Z,6.00
2023-02-03T14:35:50.385Z,5.18
2023-02-03T14:38:53.636Z,10.00
2023-02-03T14:42:03.102Z,4.82
2023-02-03T14:45:14.201Z,4.32
2023-02-03T14:48:49.223Z,4.95
2023-02-03T14:51:58.135Z,24.55
2023-02-03T14:55:32.365Z,4.73
2023-02-03T14:58:48.630Z,4.22
2023-02-03T15:01:52.105Z,4.35
2023-02-03T15:05:38.630Z,3.97
2023-02-03T15:08:46.057Z,4.43
2023-02-03T15:11:53.190Z,6.47
2023-02-03T15:15:20.767Z,5.50
2023-02-03T15:18:30.827Z,6.43
2023-02-03T15:21:41.938Z,2.65
2023-02-03T15:24:54.141Z,1.80
2023-02-03T15:28:11.779Z,3.63
2023-02-03T15:31:22.978Z,1.30
2023-02-03T15:34:53.152Z,1.45
2023-02-03T15:38:03.431Z,1.42
2023-02-03T15:41:08.817Z,1.17
2023-02-03T15:44:25.696Z,0.97
2023-02-03T15:47:42.342Z,1.20
2023-02-03T15:50:52.743Z,1.30
2023-02-03T15:54:02.677Z,1.80
2023-02-03T15:57:11.700Z,1.42
2023-02-03T16:00:27.587Z,1.67
2023-02-03T16:03:41.080Z,1.35
2023-02-03T16:06:47.318Z,1.55
2023-02-03T16:09:58.140Z,1.23
2023-02-03T16:13:28.541Z,2.15
2023-02-03T16:17:04.355Z,1.17
2023-02-03T16:20:11.642Z,3.03
2023-02-03T16:23:23.958Z,8.48
2023-02-03T16:26:31.619Z,0.90
2023-02-03T16:29:56.678Z,2.35
2023-02-03T16:33:27.375Z,0.80
2023-02-03T16:36:49.247Z,3.53
2023-02-03T16:40:12.537Z,2.75
2023-02-03T16:43:35.641Z,0.50
2023-02-03T16:46:57.089Z,1.45
2023-02-03T16:50:29.273Z,1.47
2023-02-03T16:53:40.733Z,2.78
2023-02-03T16:56:43.662Z,0.30
2023-02-03T16:59:46.603Z,0.50
2023-02-03T17:02:50.803Z,0.20
2023-02-03T17:05:54.757Z,1.77
2023-02-03T17:08:58.984Z,6.15
2023-02-03T17:12:04.391Z,2.78
2023-02-03T17:15:07.847Z,0.68
2023-02-03T17:18:17.786Z,0.20
2023-02-03T17:21:29.048Z,0.40
2023-02-03T17:24:33.999Z,0.40
2023-02-03T17:27:37.193Z,0.30
2023-02-03T17:30:40.802Z,0.40
2023-02-03T17:33:44.250Z,0.40
2023-02-03T17:36:47.309Z,0.60
2023-02-03T17:56:21.290Z,0.43
2023-02-03T17:59:24.701Z,0.40
2023-02-03T18:02:35.543Z,0.40
2023-02-03T18:05:40.547Z,0.30
2023-02-03T18:08:44.700Z,0.20
2023-02-03T18:11:47.995Z,0.22
2023-02-03T18:14:52.239Z,0.30
2023-02-03T18:17:55.304Z,0.20
2023-02-03T18:20:59.599Z,0.30
2023-02-03T18:24:02.875Z,0.30
2023-02-03T18:27:05.844Z,0.20
2023-02-03T18:30:11.842Z,0.30
2023-02-03T18:33:15.485Z,0.30
2023-02-03T18:36:21.533Z,0.40
2023-02-03T18:39:24.686Z,0.40
2023-02-03T18:42:30.935Z,1.25
2023-02-03T18:45:36.680Z,0.60
2023-02-03T18:48:40.726Z,0.50
2023-02-03T18:51:44.401Z,0.30
2023-02-03T18:54:47.724Z,0.30
2023-02-03T18:57:51.067Z,2.62
2023-02-03T19:00:56.333Z,1.15
2023-02-03T19:04:01.618Z,0.52
2023-02-03T19:07:04.830Z,0.40
2023-02-03T19:10:08.773Z,0.50
2023-02-03T19:13:12.544Z,0.22
2023-02-03T19:16:19.493Z,0.60
2023-02-03T19:19:22.844Z,0.40
2023-02-03T19:22:26.150Z,0.62
2023-02-03T19:25:29.625Z,0.57
2023-02-03T19:28:35.369Z,0.55
2023-02-03T19:31:39.337Z,0.55
2023-02-03T19:34:42.672Z,0.60
2023-02-03T19:37:46.630Z,2.97
2023-02-03T19:40:50.557Z,0.30
2023-02-03T19:43:53.829Z,0.40
2023-02-03T19:46:57.022Z,0.62
2023-02-03T19:50:03.529Z,1.33
2023-02-03T19:53:09.027Z,0.90
2023-02-03T19:56:13.842Z,0.90
2023-02-03T19:59:17.173Z,1.15
2023-02-03T20:02:20.731Z,2.80
2023-02-03T20:05:24.034Z,2.08
2023-02-03T20:08:27.532Z,0.82
2023-02-03T20:11:30.714Z,1.13
2023-02-03T20:14:34.197Z,0.40
2023-02-03T20:17:37.547Z,0.45
2023-02-03T20:20:41.805Z,0.80
2023-02-03T20:23:45.137Z,0.25
2023-02-03T20:26:48.352Z,0.30
2023-02-03T20:29:51.609Z,0.40
2023-02-03T20:32:56.473Z,0.60
2023-02-03T20:35:59.703Z,0.85
2023-02-03T20:39:03.111Z,1.20
2023-02-03T20:42:17.646Z,0.70
2023-02-03T20:45:23.213Z,1.17
2023-02-03T20:48:27.042Z,0.70
2023-02-03T20:51:30.586Z,1.20
2023-02-03T20:54:34.888Z,1.08
2023-02-03T20:57:41.427Z,1.77
2023-02-03T21:00:45.122Z,3.12
2023-02-03T21:04:07.208Z,5.75
2023-02-03T21:07:15.034Z,1.25
2023-02-03T21:10:22.412Z,4.70
2023-02-03T21:13:26.516Z,5.47
2023-02-03T21:16:39.608Z,0.90
2023-02-03T21:19:43.364Z,6.15
2023-02-03T21:22:46.566Z,1.25
2023-02-03T21:25:49.861Z,1.62
2023-02-03T21:29:01.033Z,2.67
2023-02-03T21:32:14.566Z,2.17
2023-02-03T21:35:24.299Z,0.80
2023-02-03T21:38:33.680Z,0.35
2023-02-03T21:41:39.712Z,0.50
2023-02-03T21:44:43.360Z,0.90
2023-02-03T21:47:51.470Z,0.82
2023-02-03T21:50:56.579Z,0.95
2023-02-03T21:54:22.696Z,0.60
2023-02-03T21:57:26.018Z,1.40
2023-02-03T22:00:39.227Z,0.73
2023-02-03T22:03:45.239Z,0.50
2023-02-03T22:06:53.384Z,0.82
2023-02-03T22:09:56.260Z,0.70
2023-02-03T22:12:59.198Z,0.50
2023-02-03T22:16:04.199Z,0.57
2023-02-03T22:19:07.126Z,0.60
2023-02-03T22:22:09.986Z,0.60
2023-02-03T22:25:12.901Z,0.60
2023-02-03T22:28:16.125Z,0.60
2023-02-03T22:31:20.033Z,0.40
2023-02-03T22:34:23.691Z,0.30
2023-02-03T22:37:26.652Z,1.67
2023-02-03T22:40:29.768Z,2.28
2023-02-03T22:43:35.907Z,0.43
2023-02-03T22:46:39.109Z,0.20
2023-02-03T22:49:45.245Z,0.65
2023-02-03T22:52:48.311Z,0.50
2023-02-03T22:55:51.190Z,0.30
2023-02-03T22:58:53.992Z,0.40
2023-02-03T23:01:57.541Z,0.50
2023-02-03T23:05:00.964Z,0.30
2023-02-03T23:08:03.993Z,0.47
2023-02-03T23:11:06.821Z,0.30
2023-02-03T23:14:10.529Z,0.57
2023-02-03T23:17:13.344Z,0.60
2023-02-03T23:20:18.382Z,1.92
2023-02-03T23:23:21.355Z,0.70
2023-02-03T23:26:24.316Z,0.40
2023-02-03T23:29:27.198Z,0.40
2023-02-03T23:32:30.243Z,0.40
2023-02-03T23:35:49.514Z,0.50
2023-02-03T23:38:56.012Z,0.40
2023-02-03T23:41:59.045Z,0.60
2023-02-03T23:45:02.796Z,0.57
2023-02-03T23:48:06.500Z,0.50
2023-02-03T23:51:09.420Z,0.62
2023-02-03T23:54:12.583Z,0.62
2023-02-03T23:57:15.430Z,0.50
